createdAt,value
2023-04-25T00:01:55.562Z,3.65
2023-04-25T00:04:23.000Z,3.85
2023-04-25T00:06:50.020Z,4.30
2023-04-25T00:09:16.802Z,4.05
2023-04-25T00:11:43.675Z,4.38
2023-04-25T00:14:10.954Z,4.20
2023-04-25T00:16:37.779Z,4.13
2023-04-25T00:19:04.623Z,3.97
2023-04-25T00:21:32.608Z,4.63
2023-04-25T00:24:00.003Z,5.00
2023-04-25T00:26:28.724Z,4.45
2023-04-25T00:28:55.432Z,4.30
2023-04-25T00:31:22.279Z,4.60
2023-04-25T00:33:49.539Z,4.63
2023-04-25T00:36:16.877Z,4.38
2023-04-25T00:38:43.640Z,4.78
2023-04-25T00:41:10.745Z,5.10
2023-04-25T00:43:38.223Z,4.82
2023-04-25T00:46:05.190Z,5.68
2023-04-25T00:48:32.137Z,5.72
2023-04-25T00:50:59.984Z,5.43
2023-04-25T00:53:29.155Z,4.95
2023-04-25T00:55:56.301Z,5.45
2023-04-25T00:58:24.004Z,5.78
2023-04-25T01:00:53.100Z,6.15
2023-04-25T01:03:21.260Z,5.40
2023-04-25T01:05:49.066Z,5.93
2023-04-25T01:08:16.247Z,6.18
2023-04-25T01:10:43.389Z,6.80
2023-04-25T01:13:10.306Z,6.47
2023-04-25T01:15:37.378Z,6.68
2023-04-25T01:18:06.489Z,6.25
2023-04-25T01:20:34.550Z,6.95
2023-04-25T01:23:03.245Z,6.45
2023-04-25T01:25:33.889Z,7.00
2023-04-25T01:28:01.002Z,6.35
2023-04-25T01:30:28.508Z,7.18
2023-04-25T01:32:57.328Z,6.22
2023-04-25T01:35:25.077Z,6.90
2023-04-25T01:37:52.831Z,7.00
2023-04-25T01:40:21.826Z,6.63
2023-04-25T01:42:48.764Z,6.22
2023-04-25T01:45:16.044Z,6.25
2023-04-25T01:47:44.707Z,6.80
2023-04-25T01:50:12.410Z,6.70
2023-04-25T01:52:39.522Z,6.63
2023-04-25T01:55:07.283Z,7.00
2023-04-25T01:57:34.056Z,6.85
2023-04-25T02:00:04.089Z,6.43
2023-04-25T02:02:31.099Z,6.22
2023-04-25T02:04:57.953Z,7.53
2023-04-25T02:07:24.766Z,6.70
2023-04-25T02:09:51.669Z,6.45
2023-04-25T02:12:18.467Z,6.68
2023-04-25T02:14:45.427Z,7.00
2023-04-25T02:17:13.685Z,6.43
2023-04-25T02:19:40.834Z,6.32
2023-04-25T02:22:07.825Z,6.53
2023-04-25T02:24:35.738Z,6.88
2023-04-25T02:27:02.651Z,6.97
2023-04-25T02:29:30.054Z,8.38
2023-04-25T02:31:56.934Z,7.07
2023-04-25T02:34:23.805Z,7.22
2023-04-25T02:36:53.498Z,7.88
2023-04-25T02:39:20.353Z,7.28
2023-04-25T02:41:47.055Z,8.13
2023-04-25T02:44:13.984Z,7.40
2023-04-25T02:46:40.743Z,7.32
2023-04-25T02:49:07.952Z,7.55
2023-04-25T02:51:34.790Z,7.35
2023-04-25T02:54:01.617Z,7.43
2023-04-25T02:56:28.482Z,7.45
2023-04-25T02:58:55.257Z,7.80
2023-04-25T03:01:22.167Z,6.93
2023-04-25T03:03:49.525Z,7.40
2023-04-25T03:06:16.994Z,7.70
2023-04-25T03:08:44.377Z,7.18
2023-04-25T03:11:11.616Z,6.25
2023-04-25T03:13:38.446Z,6.18
2023-04-25T03:16:05.795Z,6.68
2023-04-25T03:18:32.652Z,6.68
2023-04-25T03:20:59.638Z,6.53
2023-04-25T03:23:26.992Z,6.28
2023-04-25T03:25:53.808Z,6.07
2023-04-25T03:28:21.204Z,5.63
2023-04-25T03:30:48.047Z,5.60
2023-04-25T03:33:14.896Z,5.57
2023-04-25T03:35:41.717Z,4.88
2023-04-25T03:38:08.552Z,4.72
2023-04-25T03:40:35.431Z,4.55
2023-04-25T03:43:02.191Z,4.28
2023-04-25T03:45:28.954Z,4.53
2023-04-25T03:47:55.913Z,3.58
2023-04-25T03:50:22.798Z,4.22
2023-04-25T03:52:49.572Z,4.53
2023-04-25T03:55:16.484Z,4.35
2023-04-25T03:57:43.246Z,3.38
2023-04-25T04:00:10.891Z,4.45
2023-04-25T04:02:38.691Z,4.38
2023-04-25T04:05:07.074Z,4.60
2023-04-25T04:07:34.386Z,4.30
2023-04-25T04:10:01.174Z,4.22
2023-04-25T04:12:28.036Z,4.78
2023-04-25T04:14:54.789Z,4.65
2023-04-25T04:17:21.555Z,4.30
2023-04-25T04:19:48.445Z,4.63
2023-04-25T04:22:15.349Z,4.28
2023-04-25T04:24:44.818Z,4.80
2023-04-25T04:27:13.681Z,4.22
2023-04-25T04:29:40.549Z,4.72
2023-04-25T04:32:09.660Z,3.58
2023-04-25T04:34:36.685Z,4.45
2023-04-25T04:37:03.731Z,4.20
2023-04-25T04:39:30.522Z,4.43
2023-04-25T04:41:57.705Z,8.07
2023-04-25T04:44:24.543Z,6.68
2023-04-25T04:46:51.756Z,4.85
2023-04-25T04:49:18.677Z,4.93
2023-04-25T04:51:45.604Z,4.07
2023-04-25T04:54:12.513Z,4.13
2023-04-25T04:56:39.558Z,3.72
2023-04-25T04:59:06.449Z,3.92
2023-04-25T05:01:33.278Z,3.20
2023-04-25T05:04:01.929Z,4.07
2023-04-25T05:06:32.793Z,4.25
2023-04-25T05:08:59.959Z,4.03
2023-04-25T05:11:26.867Z,3.20
2023-04-25T05:13:54.472Z,4.65
2023-04-25T05:16:21.890Z,3.00
2023-04-25T05:18:49.278Z,4.32
2023-04-25T05:21:16.151Z,4.10
2023-04-25T05:23:42.894Z,3.65
2023-04-25T05:26:14.759Z,3.97
2023-04-25T05:28:42.986Z,3.95
2023-04-25T05:31:13.165Z,4.93
2023-04-25T05:33:39.932Z,4.15
2023-04-25T05:36:07.512Z,3.95
2023-04-25T05:38:35.103Z,3.50
2023-04-25T05:41:02.168Z,3.55
2023-04-25T05:43:29.007Z,4.30
2023-04-25T05:45:55.878Z,3.58
2023-04-25T05:48:22.805Z,3.97
2023-04-25T05:50:49.646Z,3.95
2023-04-25T05:53:16.459Z,3.85
2023-04-25T05:55:43.248Z,4.88
2023-04-25T05:58:10.115Z,4.72
2023-04-25T06:00:37.100Z,4.47
2023-04-25T06:03:04.557Z,4.68
2023-04-25T06:05:31.664Z,3.88
2023-04-25T06:07:58.581Z,4.85
2023-04-25T06:10:25.789Z,4.00
2023-04-25T06:12:52.507Z,4.05
2023-04-25T06:17:49.826Z,3.95
2023-04-25T06:20:16.840Z,3.15
2023-04-25T06:22:43.576Z,3.25
2023-04-25T06:25:10.527Z,3.88
2023-04-25T06:27:37.289Z,3.35
2023-04-25T06:30:05.408Z,3.90
2023-04-25T06:32:32.229Z,2.90
2023-04-25T06:34:59.036Z,4.22
2023-04-25T06:37:26.371Z,4.20
2023-04-25T06:39:53.357Z,4.05
2023-04-25T06:42:20.135Z,2.50
2023-04-25T06:44:46.845Z,3.50
2023-04-25T06:47:13.791Z,2.85
2023-04-25T06:49:40.657Z,3.42
2023-04-25T06:52:08.715Z,3.15
2023-04-25T06:54:35.540Z,3.60
2023-04-25T06:57:02.522Z,3.78
2023-04-25T06:59:29.241Z,3.17
2023-04-25T07:01:56.121Z,3.22
2023-04-25T07:04:23.190Z,2.75
2023-04-25T07:06:50.685Z,2.58
2023-04-25T07:09:17.686Z,2.80
2023-04-25T07:11:44.533Z,2.80
2023-04-25T07:14:11.322Z,2.95
2023-04-25T07:16:38.074Z,2.53
2023-04-25T07:19:05.074Z,3.15
2023-04-25T07:21:32.303Z,3.03
2023-04-25T07:23:59.158Z,3.05
2023-04-25T07:26:25.926Z,3.05
2023-04-25T07:28:52.899Z,3.10
2023-04-25T07:31:19.748Z,2.72
2023-04-25T07:33:46.931Z,2.42
2023-04-25T07:36:14.241Z,2.25
2023-04-25T07:38:41.008Z,2.70
2023-04-25T07:41:07.835Z,3.13
2023-04-25T07:43:36.133Z,3.10
2023-04-25T07:46:03.803Z,2.72
2023-04-25T07:48:30.657Z,2.60
2023-04-25T07:50:57.649Z,3.03
2023-04-25T07:53:24.522Z,2.85
2023-04-25T07:55:51.725Z,2.40
2023-04-25T07:58:22.346Z,3.78
2023-04-25T08:00:50.080Z,3.65
2023-04-25T08:03:17.142Z,3.30
2023-04-25T08:05:44.404Z,2.85
2023-04-25T08:08:11.470Z,2.42
2023-04-25T08:10:38.258Z,2.83
2023-04-25T08:13:05.063Z,3.15
2023-04-25T08:15:31.822Z,2.92
2023-04-25T08:17:58.673Z,3.00
2023-04-25T08:20:26.016Z,2.60
2023-04-25T08:22:52.912Z,3.67
2023-04-25T08:25:19.809Z,3.28
2023-04-25T08:27:46.649Z,2.85
2023-04-25T08:30:13.793Z,2.47
2023-04-25T08:32:40.813Z,3.17
2023-04-25T08:35:08.039Z,3.10
2023-04-25T08:37:34.818Z,2.85
2023-04-25T08:40:01.640Z,3.05
2023-04-25T08:42:29.921Z,2.70
2023-04-25T08:44:57.427Z,3.63
2023-04-25T08:47:25.522Z,3.13
2023-04-25T08:49:55.318Z,3.63
2023-04-25T08:52:28.345Z,3.63
2023-04-25T08:54:56.514Z,2.92
2023-04-25T08:57:24.305Z,3.08
2023-04-25T08:59:53.308Z,3.15
2023-04-25T09:02:21.899Z,4.00
2023-04-25T09:04:49.526Z,2.53
2023-04-25T09:07:19.494Z,3.10
2023-04-25T09:09:46.279Z,2.63
2023-04-25T09:12:13.332Z,2.50
2023-04-25T09:14:40.222Z,2.85
2023-04-25T09:17:08.896Z,2.67
2023-04-25T09:19:40.928Z,3.10
2023-04-25T09:22:09.249Z,2.63
2023-04-25T09:24:46.968Z,2.35
2023-04-25T09:27:19.377Z,2.72
2023-04-25T09:29:47.333Z,2.53
2023-04-25T09:32:25.135Z,2.42
2023-04-25T09:34:57.432Z,2.03
2023-04-25T09:37:29.353Z,2.20
2023-04-25T09:40:00.260Z,2.95
2023-04-25T09:42:29.679Z,2.22
2023-04-25T09:44:57.595Z,2.50
2023-04-25T09:47:26.275Z,2.50
2023-04-25T09:49:54.437Z,2.40
2023-04-25T09:52:25.578Z,2.33
2023-04-25T09:54:53.724Z,2.47
2023-04-25T09:57:24.857Z,2.83
2023-04-25T09:59:56.566Z,2.28
2023-04-25T10:02:26.031Z,2.20
2023-04-25T10:04:55.675Z,2.28
2023-04-25T10:07:29.301Z,2.08
2023-04-25T10:10:01.079Z,1.98
2023-04-25T10:12:28.012Z,2.22
2023-04-25T10:14:56.173Z,2.45
2023-04-25T10:17:23.565Z,1.88
2023-04-25T10:19:50.565Z,2.60
2023-04-25T10:22:42.182Z,2.55
2023-04-25T10:25:10.076Z,1.83
2023-04-25T10:27:37.998Z,2.45
2023-04-25T10:30:16.458Z,1.83
2023-04-25T10:32:44.363Z,2.10
2023-04-25T10:35:19.130Z,2.17
2023-04-25T10:38:10.588Z,1.40
2023-04-25T10:40:37.900Z,1.98
2023-04-25T10:43:41.293Z,2.00
2023-04-25T10:46:22.950Z,1.73
2023-04-25T10:48:58.445Z,2.08
2023-04-25T10:53:56.333Z,1.90
2023-04-25T10:56:26.530Z,1.92
2023-04-25T10:59:03.786Z,2.63
2023-04-25T11:01:46.400Z,1.90
2023-04-25T11:04:29.535Z,1.90
2023-04-25T11:07:11.493Z,2.28
2023-04-25T11:09:41.607Z,2.10
2023-04-25T11:12:10.086Z,1.60
2023-04-25T11:14:37.414Z,2.92
2023-04-25T11:17:04.324Z,2.10
2023-04-25T11:19:31.576Z,1.88
2023-04-25T11:22:00.676Z,2.05
2023-04-25T11:24:32.524Z,2.03
2023-04-25T11:27:00.518Z,1.67
2023-04-25T11:29:31.503Z,2.05
2023-04-25T11:32:02.167Z,2.25
2023-04-25T11:34:34.144Z,1.90
2023-04-25T11:37:02.911Z,1.85
2023-04-25T11:39:30.860Z,1.90
2023-04-25T11:41:58.017Z,2.75
2023-04-25T11:44:25.054Z,2.10
2023-04-25T11:46:51.911Z,2.45
2023-04-25T11:49:19.510Z,1.70
2023-04-25T11:51:48.752Z,1.90
2023-04-25T11:54:16.412Z,1.50
2023-04-25T11:56:44.488Z,2.15
2023-04-25T11:59:11.728Z,2.47
2023-04-25T12:01:41.735Z,1.77
2023-04-25T12:04:27.806Z,1.85
2023-04-25T12:06:56.522Z,1.40
2023-04-25T12:09:34.008Z,1.80
2023-04-25T12:12:06.634Z,1.60
2023-04-25T12:14:35.228Z,1.70
2023-04-25T12:17:03.999Z,1.88
2023-04-25T12:19:36.085Z,1.58
2023-04-25T12:22:04.439Z,2.55
2023-04-25T12:24:37.818Z,1.60
2023-04-25T12:27:09.372Z,1.98
2023-04-25T12:29:48.724Z,1.42
2023-04-25T12:32:16.949Z,2.13
2023-04-25T12:34:44.054Z,1.90
2023-04-25T12:37:11.381Z,2.40
2023-04-25T12:39:38.583Z,1.50
2023-04-25T12:42:07.787Z,1.60
2023-04-25T12:44:36.621Z,1.92
2023-04-25T12:47:04.222Z,1.95
2023-04-25T12:49:31.262Z,2.30
2023-04-25T12:51:58.264Z,1.25
2023-04-25T12:54:26.502Z,1.70
2023-04-25T12:56:53.656Z,2.05
2023-04-25T12:59:21.514Z,1.25
2023-04-25T13:01:48.858Z,1.90
2023-04-25T13:04:17.094Z,1.45
2023-04-25T13:06:44.387Z,1.63
2023-04-25T13:09:13.110Z,1.48
2023-04-25T13:11:39.935Z,1.20
2023-04-25T13:14:06.736Z,1.40
2023-04-25T13:16:33.586Z,1.58
2023-04-25T13:19:00.539Z,1.35
2023-04-25T13:21:27.944Z,1.55
2023-04-25T13:23:55.093Z,1.35
2023-04-25T13:26:22.224Z,1.70
2023-04-25T13:28:48.965Z,1.80
2023-04-25T13:31:15.724Z,1.30
2023-04-25T13:33:42.466Z,2.30
2023-04-25T13:36:09.289Z,1.98
2023-04-25T13:38:36.113Z,1.77
2023-04-25T13:41:02.849Z,1.35
2023-04-25T13:43:29.574Z,1.10
2023-04-25T13:45:56.496Z,1.35
2023-04-25T13:48:24.290Z,1.50
2023-04-25T13:50:51.730Z,1.80
2023-04-25T13:53:18.613Z,1.90
2023-04-25T13:55:45.836Z,1.80
2023-04-25T13:58:12.743Z,1.30
2023-04-25T14:00:40.728Z,1.52
2023-04-25T14:03:10.623Z,1.70
2023-04-25T14:05:41.031Z,1.75
2023-04-25T14:08:08.983Z,1.55
2023-04-25T14:10:36.423Z,1.58
2023-04-25T14:13:04.019Z,1.73
2023-04-25T14:15:33.027Z,1.55
2023-04-25T14:18:00.937Z,1.88
2023-04-25T14:20:28.023Z,1.63
2023-04-25T14:22:56.926Z,1.10
2023-04-25T14:25:24.336Z,2.05
2023-04-25T14:27:51.340Z,1.88
2023-04-25T14:30:19.932Z,1.60
2023-04-25T14:32:47.410Z,1.77
2023-04-25T14:35:14.373Z,1.60
2023-04-25T14:37:41.244Z,1.33
2023-04-25T14:40:13.925Z,1.17
2023-04-25T14:42:41.175Z,1.33
2023-04-25T14:45:09.706Z,1.48
2023-04-25T14:47:39.607Z,1.27
2023-04-25T14:50:08.105Z,1.77
2023-04-25T14:52:35.061Z,1.20
2023-04-25T14:55:05.943Z,0.82
2023-04-25T14:57:34.022Z,1.35
2023-04-25T15:00:01.740Z,1.02
2023-04-25T15:02:29.639Z,1.08
2023-04-25T15:04:57.085Z,0.80
2023-04-25T15:07:24.204Z,1.15
2023-04-25T15:09:51.114Z,1.10
2023-04-25T15:12:17.952Z,1.52
2023-04-25T15:14:44.711Z,1.00
2023-04-25T15:17:13.814Z,1.10
2023-04-25T15:19:41.135Z,1.02
2023-04-25T15:22:08.102Z,1.88
2023-04-25T15:24:35.215Z,1.30
2023-04-25T15:27:02.070Z,1.20
2023-04-25T15:29:29.684Z,1.20
2023-04-25T15:31:56.751Z,1.58
2023-04-25T15:34:23.688Z,1.63
2023-04-25T15:36:50.493Z,1.67
2023-04-25T15:39:17.774Z,1.70
2023-04-25T15:41:44.539Z,1.42
2023-04-25T15:44:11.673Z,1.38
2023-04-25T15:46:39.303Z,1.30
2023-04-25T15:49:06.182Z,1.63
2023-04-25T15:51:33.686Z,1.73
2023-04-25T15:54:02.585Z,1.75
2023-04-25T15:56:29.725Z,1.40
2023-04-25T15:58:56.491Z,2.03
2023-04-25T16:01:26.043Z,2.03
2023-04-25T16:03:53.697Z,1.40
2023-04-25T16:06:20.820Z,1.35
2023-04-25T16:08:47.655Z,1.73
2023-04-25T16:11:14.828Z,1.30
2023-04-25T16:13:41.659Z,1.48
2023-04-25T16:16:08.692Z,1.40
2023-04-25T16:18:35.753Z,2.13
2023-04-25T16:21:03.208Z,1.35
2023-04-25T16:23:30.244Z,1.30
2023-04-25T16:25:57.367Z,1.52
2023-04-25T16:28:24.221Z,1.50
2023-04-25T16:30:51.065Z,2.00
2023-04-25T16:33:18.054Z,2.17
2023-04-25T16:35:44.895Z,1.52
2023-04-25T16:38:11.747Z,1.67
2023-04-25T16:40:38.622Z,1.70
2023-04-25T16:43:05.421Z,1.60
2023-04-25T16:45:32.285Z,1.67
2023-04-25T16:47:59.087Z,1.45
2023-04-25T16:50:27.043Z,1.52
2023-04-25T16:52:54.537Z,1.70
2023-04-25T16:55:21.446Z,0.98
2023-04-25T16:57:48.268Z,1.55
2023-04-25T17:00:15.788Z,1.40
2023-04-25T17:02:42.657Z,1.38
2023-04-25T17:05:10.443Z,1.42
2023-04-25T17:07:37.434Z,1.40
2023-04-25T17:10:04.595Z,1.55
2023-04-25T17:12:31.540Z,1.33
2023-04-25T17:15:00.162Z,1.33
2023-04-25T17:17:27.351Z,1.10
2023-04-25T17:19:54.122Z,1.55
2023-04-25T17:22:21.774Z,1.38
2023-04-25T17:24:48.793Z,2.03
2023-04-25T17:27:15.551Z,1.50
2023-04-25T17:29:42.323Z,1.58
2023-04-25T17:32:10.797Z,1.67
2023-04-25T17:34:39.950Z,1.25
2023-04-25T17:37:08.072Z,1.52
2023-04-25T17:39:34.868Z,1.88
2023-04-25T17:42:02.348Z,1.35
2023-04-25T17:44:29.152Z,1.20
2023-04-25T17:46:55.995Z,1.33
2023-04-25T17:49:22.794Z,1.27
2023-04-25T17:51:49.590Z,1.17
2023-04-25T17:54:16.626Z,1.63
2023-04-25T17:56:44.793Z,1.33
2023-04-25T17:59:11.664Z,1.58
2023-04-25T18:01:38.544Z,1.50
2023-04-25T18:04:05.842Z,1.70
2023-04-25T18:06:33.245Z,2.72
2023-04-25T18:09:00.200Z,1.73
2023-04-25T18:11:27.025Z,2.25
2023-04-25T18:13:54.541Z,2.33
2023-04-25T18:16:21.842Z,1.92
2023-04-25T18:18:53.385Z,1.85
2023-04-25T18:21:20.402Z,1.70
2023-04-25T18:23:47.317Z,1.55
2023-04-25T18:26:14.113Z,1.92
2023-04-25T18:28:40.900Z,2.08
2023-04-25T18:31:09.354Z,2.03
2023-04-25T18:33:36.558Z,1.55
2023-04-25T18:36:03.375Z,1.40
2023-04-25T18:41:13.035Z,1.70
2023-04-25T18:43:46.813Z,1.60
2023-04-25T18:46:13.685Z,1.52
2023-04-25T18:48:40.568Z,1.33
2023-04-25T18:51:07.714Z,1.73
2023-04-25T18:53:34.578Z,2.00
2023-04-25T18:56:01.392Z,1.92
2023-04-25T18:58:28.278Z,1.33
2023-04-25T19:00:55.444Z,1.52
2023-04-25T19:03:22.973Z,1.48
2023-04-25T19:05:49.897Z,1.02
2023-04-25T19:08:16.757Z,1.50
2023-04-25T19:10:43.999Z,1.42
2023-04-25T19:13:11.107Z,1.13
2023-04-25T19:15:37.991Z,1.65
2023-04-25T19:18:05.106Z,1.02
2023-04-25T19:20:33.540Z,1.40
2023-04-25T19:23:00.907Z,1.48
2023-04-25T19:25:27.890Z,1.33
2023-04-25T19:27:54.842Z,1.20
2023-04-25T19:30:21.626Z,1.70
2023-04-25T19:32:49.997Z,0.98
2023-04-25T19:35:17.112Z,1.60
2023-04-25T19:37:46.946Z,1.88
2023-04-25T19:40:19.597Z,1.88
2023-04-25T19:42:46.504Z,1.60
2023-04-25T19:45:13.700Z,1.48
2023-04-25T19:47:41.824Z,1.85
2023-04-25T19:50:09.886Z,1.48
2023-04-25T19:52:37.188Z,1.80
2023-04-25T19:55:05.039Z,1.88
2023-04-25T19:57:37.450Z,1.73
2023-04-25T20:00:08.881Z,1.05
2023-04-25T20:02:36.795Z,1.88
2023-04-25T20:05:05.901Z,1.67
2023-04-25T20:07:33.056Z,1.70
2023-04-25T20:10:04.068Z,1.77
2023-04-25T20:12:30.902Z,1.52
2023-04-25T20:14:58.359Z,1.70
2023-04-25T20:17:25.819Z,1.60
2023-04-25T20:19:52.925Z,2.08
2023-04-25T20:22:19.818Z,1.48
2023-04-25T20:24:46.663Z,1.90
2023-04-25T20:27:13.455Z,2.03
2023-04-25T20:29:42.122Z,1.90
2023-04-25T20:32:09.787Z,1.70
2023-04-25T20:34:37.065Z,1.33
2023-04-25T20:37:03.899Z,1.65
2023-04-25T20:39:33.140Z,1.45
2023-04-25T20:42:00.101Z,1.10
2023-04-25T20:44:26.960Z,1.85
2023-04-25T20:46:53.835Z,1.58
2023-04-25T20:49:20.833Z,1.42
2023-04-25T20:51:47.720Z,1.55
2023-04-25T20:54:14.604Z,1.55
2023-04-25T20:56:41.416Z,1.08
2023-04-25T20:59:09.171Z,1.40
2023-04-25T21:01:36.035Z,2.13
2023-04-25T21:04:02.989Z,1.88
2023-04-25T21:06:29.858Z,1.10
2023-04-25T21:08:56.711Z,1.65
2023-04-25T21:11:23.641Z,1.83
2023-04-25T21:13:51.181Z,1.23
2023-04-25T21:16:18.390Z,1.55
2023-04-25T21:18:45.120Z,1.58
2023-04-25T21:21:11.956Z,2.03
2023-04-25T21:23:38.779Z,1.70
2023-04-25T21:26:06.157Z,1.52
2023-04-25T21:28:32.958Z,2.08
2023-04-25T21:30:59.871Z,2.00
2023-04-25T21:33:26.704Z,1.70
2023-04-25T21:35:53.491Z,1.38
2023-04-25T21:38:20.216Z,1.13
2023-04-25T21:40:46.998Z,1.55
2023-04-25T21:43:13.899Z,1.88
2023-04-25T21:45:57.333Z,1.52
2023-04-25T21:48:27.384Z,1.73
2023-04-25T21:50:56.116Z,1.70
2023-04-25T21:53:23.026Z,1.50
2023-04-25T21:55:49.758Z,2.08
2023-04-25T21:58:16.493Z,1.73
2023-04-25T22:00:44.378Z,2.05
2023-04-25T22:03:14.932Z,1.33
2023-04-25T22:05:41.909Z,1.58
2023-04-25T22:08:08.971Z,1.67
2023-04-25T22:10:35.894Z,1.65
2023-04-25T22:13:02.770Z,1.63
2023-04-25T22:15:29.670Z,2.22
2023-04-25T22:17:56.565Z,1.42
2023-04-25T22:20:26.323Z,1.33
2023-04-25T22:22:54.598Z,1.25
2023-04-25T22:25:22.137Z,1.98
2023-04-25T22:27:49.405Z,1.27
2023-04-25T22:30:16.324Z,1.08
2023-04-25T22:32:43.580Z,1.70
2023-04-25T22:35:10.799Z,1.50
2023-04-25T22:37:38.988Z,1.20
2023-04-25T22:40:07.124Z,1.30
2023-04-25T22:42:42.220Z,1.92
2023-04-25T22:47:37.148Z,1.77
2023-04-25T22:50:07.629Z,1.90
2023-04-25T22:52:34.784Z,1.45
2023-04-25T22:55:03.072Z,1.70
2023-04-25T22:57:30.276Z,1.42
2023-04-25T22:59:57.554Z,1.65
2023-04-25T23:02:24.962Z,1.70
2023-04-25T23:04:53.576Z,1.75
2023-04-25T23:07:20.801Z,1.08
2023-04-25T23:09:47.609Z,1.40
2023-04-25T23:12:18.471Z,1.55
2023-04-25T23:14:50.655Z,1.60
2023-04-25T23:17:17.443Z,1.63
2023-04-25T23:19:45.238Z,1.75
2023-04-25T23:22:12.495Z,1.17
2023-04-25T23:24:39.311Z,1.35
2023-04-25T23:27:06.122Z,1.80
2023-04-25T23:29:36.364Z,1.48
2023-04-25T23:32:03.435Z,1.65
2023-04-25T23:34:31.602Z,1.50
2023-04-25T23:37:01.239Z,2.15
2023-04-25T23:39:28.567Z,1.38
2023-04-25T23:41:55.794Z,1.35
2023-04-25T23:44:22.721Z,1.75
2023-04-25T23:46:50.402Z,1.52
2023-04-25T23:49:17.212Z,2.38
2023-04-25T23:51:44.032Z,1.95
2023-04-25T23:54:11.112Z,1.20
2023-04-25T23:56:37.923Z,1.88
2023-04-25T23:59:04.930Z,1.80
